KLIC/LIC METAR and TAF weather

Enter ICAO airport designator
Station Type Date Time Source
KLIC METAR 2020/06/06 20:31 UTC NOAA

KLIC 062031Z AUTO 17019G34KT 10SM VCTS -RA FEW022 FEW095 SCT110 23/11 A2986 RMK AO2 PK WND 20049/2018 LTG DSNT E AND SE RAB08 P0000 T02280106 $


Station Type Date Time Source
KLIC Decoded METAR 2020/06/06 20:31 UTC NOAA

LIMON MUNICIPAL AIRPORT, CO, United States (KLIC) 39-16N 103-40W 1630M
Jun 06, 2020 - 04:31 PM EDT / 2020.06.06 2031 UTC
Wind: from the S (170 degrees) at 22 MPH (19 KT) gusting to 39 MPH (34 KT):0
Visibility: 10 mile(s):0
Sky conditions: partly cloudy
Weather: thunder in the vicinity; light rain; Lightning observed
Precipitation last hour: A trace
Temperature: 73.0 F (22.8 C)
Dew Point: 51.1 F (10.6 C)
Relative Humidity: 46%
Pressure (altimeter): 29.86 in. Hg (1011 hPa)
ob: KLIC 062031Z AUTO 17019G34KT 10SM VCTS -RA FEW022 FEW095 SCT110 23/11 A2986 RMK AO2 PK WND 20049/2018 LTG DSNT E AND SE RAB08 P0000 T02280106
cycle: 20

Station Type Date Time Source
KLIC TAF UTC NOAA

Error!

Example: see airport list